CheckWX is a tool to help pilots better visualize weather data.  It is not intended as a substitute for an official pre-flight weather briefing.

10:01:17 UTC

04W METAR
Field of Dreams Airport
Hinckley, Minnesota, USA
Current

1 hour ago

K04W 230859Z AUTO 31004KT 10SM CLR 16/13 A3020 RMK AO2
Observed
Jul-23 @ 08:59 UTC
Wind
  • 310° at 4 KTS
Visibility
10 SM
Flight Rules
VFR
Cloud Levels
  • Clear skies
Temperature
16°C / 61°F
Dewpoint
13°C / 55°F
Humidity
83%
Altimeter
30.2" Hg
Pressure
1022.72 hPa
Previous

2 hours ago

K04W 230759Z AUTO 31004KT 10SM CLR 17/13 A3019 RMK AO2
Observed
Jul-23 @ 07:59 UTC
Wind
  • 310° at 4 KTS
Visibility
10 SM
Flight Rules
VFR
Cloud Levels
  • Clear skies
Temperature
17°C / 63°F
Dewpoint
13°C / 55°F
Humidity
77%
Altimeter
30.19" Hg
Pressure
1022.32 hPa
Previous

3 hours ago

K04W 230659Z AUTO 31006KT 10SM CLR 17/13 A3019 RMK AO2
Observed
Jul-23 @ 06:59 UTC
Wind
  • 310° at 6 KTS
Visibility
10 SM
Flight Rules
VFR
Cloud Levels
  • Clear skies
Temperature
17°C / 63°F
Dewpoint
13°C / 55°F
Humidity
77%
Altimeter
30.19" Hg
Pressure
1022.32 hPa